sensor_id;sensor_type;location;lat;lon;timestamp;pressure;altitude;pressure_sealevel;temperature;humidity
22018;BME280;11173;51.050;7.108;2023-09-19T00:08:20;98847.19;;;15.36;70.54
22018;BME280;11173;51.050;7.108;2023-09-19T00:18:25;98851.13;;;15.20;70.56
22018;BME280;11173;51.050;7.108;2023-09-19T00:28:32;98859.25;;;15.09;70.45
22018;BME280;11173;51.050;7.108;2023-09-19T00:38:32;98863.81;;;14.97;70.78
22018;BME280;11173;51.050;7.108;2023-09-19T00:48:40;98868.50;;;14.82;71.01
22018;BME280;11173;51.050;7.108;2023-09-19T00:58:41;98880.78;;;14.75;71.64
22018;BME280;11173;51.050;7.108;2023-09-19T01:08:41;98889.34;;;14.81;71.65
22018;BME280;11173;51.050;7.108;2023-09-19T01:19:07;98903.81;;;14.79;71.66
22018;BME280;11173;51.050;7.108;2023-09-19T01:29:47;98902.59;;;14.80;71.91
22018;BME280;11173;51.050;7.108;2023-09-19T01:39:58;98908.38;;;14.86;72.04
22018;BME280;11173;51.050;7.108;2023-09-19T01:50:26;98920.69;;;14.88;71.57
22018;BME280;11173;51.050;7.108;2023-09-19T02:00:32;98932.38;;;14.87;72.43
22018;BME280;11173;51.050;7.108;2023-09-19T02:10:32;98935.50;;;14.98;72.00
22018;BME280;11173;51.050;7.108;2023-09-19T02:20:34;98951.84;;;15.18;70.87
22018;BME280;11173;51.050;7.108;2023-09-19T02:30:34;98958.53;;;15.30;69.37
22018;BME280;11173;51.050;7.108;2023-09-19T02:40:36;98960.38;;;15.33;68.71
22018;BME280;11173;51.050;7.108;2023-09-19T02:50:36;98962.41;;;15.33;67.73
22018;BME280;11173;51.050;7.108;2023-09-19T03:00:37;98968.31;;;15.35;67.21
22018;BME280;11173;51.050;7.108;2023-09-19T03:10:38;98967.84;;;15.36;66.80
22018;BME280;11173;51.050;7.108;2023-09-19T03:20:38;98991.25;;;15.33;66.31
22018;BME280;11173;51.050;7.108;2023-09-19T03:30:39;99008.88;;;15.15;66.55
22018;BME280;11173;51.050;7.108;2023-09-19T03:40:39;98999.69;;;14.96;66.69
22018;BME280;11173;51.050;7.108;2023-09-19T03:50:39;98996.03;;;14.68;66.90
22018;BME280;11173;51.050;7.108;2023-09-19T04:00:40;98998.78;;;14.40;68.02
22018;BME280;11173;51.050;7.108;2023-09-19T04:10:43;98991.69;;;14.17;68.85
22018;BME280;11173;51.050;7.108;2023-09-19T04:20:51;98998.84;;;14.09;69.40
22018;BME280;11173;51.050;7.108;2023-09-19T04:30:51;98988.97;;;13.95;69.77
22018;BME280;11173;51.050;7.108;2023-09-19T04:40:56;99004.88;;;13.98;69.71
22018;BME280;11173;51.050;7.108;2023-09-19T04:50:57;99017.91;;;13.92;70.00
22018;BME280;11173;51.050;7.108;2023-09-19T05:00:57;99028.03;;;13.77;69.78
22018;BME280;11173;51.050;7.108;2023-09-19T05:10:58;99022.91;;;13.53;69.98
22018;BME280;11173;51.050;7.108;2023-09-19T05:20:58;99025.72;;;13.31;70.39
22018;BME280;11173;51.050;7.108;2023-09-19T05:31:00;99058.81;;;13.10;69.65
22018;BME280;11173;51.050;7.108;2023-09-19T05:41:02;99070.69;;;13.02;71.51
22018;BME280;11173;51.050;7.108;2023-09-19T05:51:02;99088.53;;;13.17;71.83
22018;BME280;11173;51.050;7.108;2023-09-19T06:01:03;99105.56;;;13.45;71.95
22018;BME280;11173;51.050;7.108;2023-09-19T06:11:04;99110.16;;;13.73;71.97
22018;BME280;11173;51.050;7.108;2023-09-19T06:21:09;99124.00;;;13.99;70.98
22018;BME280;11173;51.050;7.108;2023-09-19T06:31:10;99138.94;;;14.18;70.71
22018;BME280;11173;51.050;7.108;2023-09-19T06:41:10;99140.91;;;14.40;70.97
22018;BME280;11173;51.050;7.108;2023-09-19T06:51:14;99132.00;;;14.63;71.46
22018;BME280;11173;51.050;7.108;2023-09-19T07:01:16;99139.09;;;14.86;71.08
22018;BME280;11173;51.050;7.108;2023-09-19T07:11:17;99125.59;;;15.03;70.75
22018;BME280;11173;51.050;7.108;2023-09-19T07:21:18;99144.31;;;15.16;70.76
22018;BME280;11173;51.050;7.108;2023-09-19T07:31:18;99146.38;;;15.34;70.77
22018;BME280;11173;51.050;7.108;2023-09-19T07:41:18;99152.47;;;15.50;70.57
22018;BME280;11173;51.050;7.108;2023-09-19T07:51:19;99155.75;;;15.77;70.94
22018;BME280;11173;51.050;7.108;2023-09-19T08:01:19;99162.63;;;16.03;71.03
22018;BME280;11173;51.050;7.108;2023-09-19T08:11:20;99167.56;;;16.27;70.77
22018;BME280;11173;51.050;7.108;2023-09-19T08:21:22;99158.59;;;16.56;69.84
22018;BME280;11173;51.050;7.108;2023-09-19T08:31:24;99156.56;;;16.99;70.63
22018;BME280;11173;51.050;7.108;2023-09-19T08:41:26;99161.13;;;17.45;68.96
22018;BME280;11173;51.050;7.108;2023-09-19T08:51:32;99180.25;;;17.65;69.07
22018;BME280;11173;51.050;7.108;2023-09-19T09:01:34;99169.00;;;17.80;66.94
22018;BME280;11173;51.050;7.108;2023-09-19T09:11:35;99164.56;;;17.88;65.89
22018;BME280;11173;51.050;7.108;2023-09-19T09:21:37;99168.66;;;17.87;62.71
22018;BME280;11173;51.050;7.108;2023-09-19T09:31:39;99159.09;;;17.69;62.56
22018;BME280;11173;51.050;7.108;2023-09-19T09:41:42;99158.50;;;17.65;62.19
22018;BME280;11173;51.050;7.108;2023-09-19T09:51:45;99153.28;;;17.73;60.70
22018;BME280;11173;51.050;7.108;2023-09-19T10:02:01;99152.91;;;17.95;58.66
22018;BME280;11173;51.050;7.108;2023-09-19T10:12:05;99153.31;;;18.18;59.34
22018;BME280;11173;51.050;7.108;2023-09-19T10:22:08;99147.13;;;18.43;56.85
22018;BME280;11173;51.050;7.108;2023-09-19T10:32:12;99140.69;;;18.58;56.90
22018;BME280;11173;51.050;7.108;2023-09-19T10:42:19;99142.50;;;18.76;57.30
22018;BME280;11173;51.050;7.108;2023-09-19T10:52:23;99137.41;;;18.95;57.83
22018;BME280;11173;51.050;7.108;2023-09-19T11:02:24;99117.00;;;18.85;59.62
22018;BME280;11173;51.050;7.108;2023-09-19T11:33:25;99129.06;;;19.88;59.88
22018;BME280;11173;51.050;7.108;2023-09-19T11:43:29;99119.66;;;20.23;59.05
22018;BME280;11173;51.050;7.108;2023-09-19T11:53:31;99131.81;;;20.29;57.68
22018;BME280;11173;51.050;7.108;2023-09-19T12:03:33;99132.56;;;20.30;57.51
22018;BME280;11173;51.050;7.108;2023-09-19T12:13:41;99133.94;;;20.40;58.47
22018;BME280;11173;51.050;7.108;2023-09-19T12:23:43;99121.63;;;20.43;56.88
22018;BME280;11173;51.050;7.108;2023-09-19T12:33:43;99104.44;;;20.46;55.51
22018;BME280;11173;51.050;7.108;2023-09-19T12:43:44;99108.91;;;20.27;54.77
22018;BME280;11173;51.050;7.108;2023-09-19T12:53:46;99097.81;;;19.97;54.19
22018;BME280;11173;51.050;7.108;2023-09-19T13:04:20;99091.66;;;19.73;53.27
22018;BME280;11173;51.050;7.108;2023-09-19T13:14:29;99071.97;;;19.58;52.51
22018;BME280;11173;51.050;7.108;2023-09-19T13:24:40;99074.03;;;19.57;51.63
22018;BME280;11173;51.050;7.108;2023-09-19T13:34:41;99071.69;;;19.56;55.11
22018;BME280;11173;51.050;7.108;2023-09-19T13:44:42;99073.41;;;19.74;53.53
22018;BME280;11173;51.050;7.108;2023-09-19T13:54:43;99069.03;;;19.99;51.47
22018;BME280;11173;51.050;7.108;2023-09-19T14:04:44;99084.53;;;20.35;55.18
22018;BME280;11173;51.050;7.108;2023-09-19T14:14:45;99074.81;;;20.79;55.85
22018;BME280;11173;51.050;7.108;2023-09-19T14:24:45;99067.25;;;21.08;54.49
22018;BME280;11173;51.050;7.108;2023-09-19T14:34:45;99081.78;;;20.84;49.77
22018;BME280;11173;51.050;7.108;2023-09-19T14:44:46;99093.34;;;20.43;50.48
22018;BME280;11173;51.050;7.108;2023-09-19T14:54:48;99079.25;;;20.17;53.30
22018;BME280;11173;51.050;7.108;2023-09-19T15:04:49;99078.72;;;20.13;53.26
22018;BME280;11173;51.050;7.108;2023-09-19T15:14:51;99076.09;;;20.09;49.51
22018;BME280;11173;51.050;7.108;2023-09-19T15:24:52;99072.19;;;19.80;51.07
22018;BME280;11173;51.050;7.108;2023-09-19T15:34:52;99076.22;;;19.47;52.25
22018;BME280;11173;51.050;7.108;2023-09-19T15:44:53;99066.41;;;19.22;53.17
22018;BME280;11173;51.050;7.108;2023-09-19T15:54:55;99076.72;;;19.05;53.74
22018;BME280;11173;51.050;7.108;2023-09-19T16:04:55;99071.28;;;19.01;54.63
22018;BME280;11173;51.050;7.108;2023-09-19T16:14:56;99069.22;;;19.02;54.69
22018;BME280;11173;51.050;7.108;2023-09-19T16:24:56;99066.41;;;19.02;52.89
22018;BME280;11173;51.050;7.108;2023-09-19T16:34:57;99075.38;;;19.00;54.05
22018;BME280;11173;51.050;7.108;2023-09-19T16:44:57;99082.69;;;18.92;55.33
22018;BME280;11173;51.050;7.108;2023-09-19T16:54:59;99071.75;;;18.79;55.59
22018;BME280;11173;51.050;7.108;2023-09-19T17:04:59;99063.84;;;18.63;55.66
22018;BME280;11173;51.050;7.108;2023-09-19T17:15:00;99073.97;;;18.40;56.09
22018;BME280;11173;51.050;7.108;2023-09-19T17:25:00;99082.16;;;18.23;56.27
22018;BME280;11173;51.050;7.108;2023-09-19T17:35:03;99076.44;;;18.02;55.88
22018;BME280;11173;51.050;7.108;2023-09-19T17:45:04;99076.72;;;17.89;56.32
22018;BME280;11173;51.050;7.108;2023-09-19T17:55:06;99075.38;;;17.85;54.68
22018;BME280;11173;51.050;7.108;2023-09-19T18:05:07;99076.34;;;17.82;56.17
22018;BME280;11173;51.050;7.108;2023-09-19T18:15:08;99088.56;;;17.79;57.61
22018;BME280;11173;51.050;7.108;2023-09-19T18:25:08;99097.53;;;17.77;58.34
22018;BME280;11173;51.050;7.108;2023-09-19T18:35:09;99102.34;;;17.77;58.18
22018;BME280;11173;51.050;7.108;2023-09-19T18:45:09;99104.09;;;17.74;58.63
22018;BME280;11173;51.050;7.108;2023-09-19T18:55:12;99117.44;;;17.74;58.22
22018;BME280;11173;51.050;7.108;2023-09-19T19:05:14;99114.03;;;17.69;59.16
22018;BME280;11173;51.050;7.108;2023-09-19T19:15:16;99109.16;;;17.70;59.19
22018;BME280;11173;51.050;7.108;2023-09-19T19:25:16;99101.41;;;17.65;58.12
22018;BME280;11173;51.050;7.108;2023-09-19T19:35:19;99113.72;;;17.67;59.51
22018;BME280;11173;51.050;7.108;2023-09-19T19:45:19;99107.78;;;17.65;58.91
22018;BME280;11173;51.050;7.108;2023-09-19T19:55:19;99111.84;;;17.64;59.28
22018;BME280;11173;51.050;7.108;2023-09-19T20:05:27;99115.81;;;17.58;59.61
22018;BME280;11173;51.050;7.108;2023-09-19T20:15:27;99114.16;;;17.51;60.10
22018;BME280;11173;51.050;7.108;2023-09-19T20:25:30;99108.22;;;17.49;59.33
22018;BME280;11173;51.050;7.108;2023-09-19T20:35:35;99109.66;;;17.44;60.81
22018;BME280;11173;51.050;7.108;2023-09-19T20:45:37;99116.63;;;17.34;61.06
22018;BME280;11173;51.050;7.108;2023-09-19T20:55:40;99113.56;;;17.23;61.44
22018;BME280;11173;51.050;7.108;2023-09-19T21:05:40;99116.28;;;17.17;61.23
22018;BME280;11173;51.050;7.108;2023-09-19T21:15:41;99115.09;;;17.09;61.95
22018;BME280;11173;51.050;7.108;2023-09-19T21:25:42;99105.38;;;17.10;62.15
22018;BME280;11173;51.050;7.108;2023-09-19T21:35:45;99099.91;;;17.06;62.20
22018;BME280;11173;51.050;7.108;2023-09-19T21:45:46;99103.50;;;17.07;62.20
22018;BME280;11173;51.050;7.108;2023-09-19T21:55:46;99093.81;;;17.08;62.16
22018;BME280;11173;51.050;7.108;2023-09-19T22:05:47;99087.25;;;17.11;62.54
22018;BME280;11173;51.050;7.108;2023-09-19T22:15:55;99086.75;;;17.13;62.05
22018;BME280;11173;51.050;7.108;2023-09-19T22:25:56;99069.69;;;17.16;62.02
22018;BME280;11173;51.050;7.108;2023-09-19T22:35:56;99084.44;;;17.11;61.73
22018;BME280;11173;51.050;7.108;2023-09-19T22:45:58;99074.97;;;16.99;62.31
22018;BME280;11173;51.050;7.108;2023-09-19T22:56:02;99071.72;;;16.92;62.57
22018;BME280;11173;51.050;7.108;2023-09-19T23:06:12;99073.06;;;16.81;62.57
22018;BME280;11173;51.050;7.108;2023-09-19T23:16:21;99080.28;;;16.73;62.56
22018;BME280;11173;51.050;7.108;2023-09-19T23:26:28;99072.78;;;16.61;62.79
22018;BME280;11173;51.050;7.108;2023-09-19T23:36:28;99076.75;;;16.54;63.03
22018;BME280;11173;51.050;7.108;2023-09-19T23:46:29;99072.56;;;16.49;63.53
22018;BME280;11173;51.050;7.108;2023-09-19T23:56:33;99071.28;;;16.50;63.57
